首页
METAR-TAF:

METAR-TAF

机场 :

昆明, 中华人民共和国

昆明长水国际机场

纬度: 25-01N, 经度: 102-41E, 海拔: 1892米

当前天气观测

该预报发布于22分钟前的22:00 UTC
风速8节,风向西,在西南西北之间变化
温度 15°C
湿度 77%
气压 1019 hPa
能见度10公里或以上
少量云层高于2000英尺, 塔状积云.
散云层高于2000英尺
多云层高于3600英尺
小阵雨

METAR: ZPPP 252200Z 27004MPS 230V310 9999 -SHRA FEW020TCU SCT020 BKN036 15/11 Q1019 RETS BECMG TL2230 NSW

时间: 06:22 (22:22 UTC)

预报

该预报发布于2小时和9分钟前的20:13 UTC
预报有效从25日的 18点(UTC)到 26日的 18点(UTC)
风速8节,风向东北
能见度10公里或以上
散云层高于2600英尺
短暂存在
从 25日的 20点(UTC)到 25日的 22点(UTC)
少量云层高于2600英尺, 积雨云.
散云层高于2600英尺
雷暴, 小雨

TAF: ZPPP 252013Z 2518/2618 04004MPS 9999 SCT026 TX23/2608Z TN12/2523Z TEMPO 2520/2522 -TSRA FEW026CB SCT026

超过4000个机场的气象观测和天气预报(METAR&TAF报告)。

可查询的气象台以黄色和红色小点在地图上表示。

将鼠标移到小点上方,可查看气象台名称。

然后点击查看天气观测和预报。

如需切换地图:点击带黑十字的绿色按钮放大地图;点击带横线的绿色按钮缩小地图;或者点击绿色箭头查看邻近地区的地图。


METAR-TAF: